Time;durP1;ratioP1;P1;durP2;ratioP2;P2;SDS_P1;SDS_P2;PMS_P1;PMS_P2;Temp;Humidity;BMP_temperature;BMP_pressure;BME280_temperature;BME280_humidity;BME280_pressure;Samples;Min_cycle;Max_cycle;Signal;HPM_P1;HPM_P2
2022/11/17 00:01:54;;;;;;;43.08;23.50;;;;;;;;;;5034087;28;20114;-67
2022/11/17 00:04:20;;;;;;;40.13;22.02;;;;;;;;;;5035357;28;20484;-67
2022/11/17 00:06:46;;;;;;;40.28;22.75;;;;;;;;;;5039020;28;20053;-67
2022/11/17 00:09:16;;;;;;;31.00;20.98;;;;;;;;;;5037332;28;20508;-67
2022/11/17 00:14:35;;;;;;;34.70;21.83;;;;;;;;;;5038552;28;20053;-67
2022/11/17 00:17:04;;;;;;;33.60;20.52;;;;;;;;;;5034728;28;20052;-67
2022/11/17 00:22:15;;;;;;;32.55;20.05;;;;;;;;;;5035589;28;20081;-67
2022/11/17 00:24:42;;;;;;;31.35;20.08;;;;;;;;;;5031099;28;20110;-67
2022/11/17 00:27:08;;;;;;;29.75;18.58;;;;;;;;;;5034059;28;20041;-67
2022/11/17 00:29:34;;;;;;;31.40;19.17;;;;;;;;;;5037595;28;20049;-67
2022/11/17 00:34:46;;;;;;;31.83;18.85;;;;;;;;;;5067157;28;20515;-67
2022/11/17 00:37:13;;;;;;;29.42;18.30;;;;;;;;;;5033252;28;20084;-67
2022/11/17 00:39:39;;;;;;;33.55;19.40;;;;;;;;;;5034394;28;20041;-67
2022/11/17 00:42:05;;;;;;;29.38;18.23;;;;;;;;;;5035303;28;20151;-67
2022/11/17 00:44:31;;;;;;;29.42;17.98;;;;;;;;;;5036877;28;20079;-67
2022/11/17 00:46:57;;;;;;;24.70;16.98;;;;;;;;;;5038519;28;20068;-67
2022/11/17 00:49:25;;;;;;;28.33;18.33;;;;;;;;;;5066682;28;20064;-67
2022/11/17 00:51:52;;;;;;;24.80;17.48;;;;;;;;;;5039843;28;20408;-67
2022/11/17 00:54:18;;;;;;;27.40;18.10;;;;;;;;;;5041336;28;20098;-68
2022/11/17 00:56:44;;;;;;;24.60;16.92;;;;;;;;;;5038018;28;20049;-67
2022/11/17 00:59:10;;;;;;;26.17;16.92;;;;;;;;;;5040620;28;20118;-67
2022/11/17 01:01:37;;;;;;;24.67;16.70;;;;;;;;;;5037565;28;20056;-67
2022/11/17 01:04:03;;;;;;;24.52;16.48;;;;;;;;;;5038602;28;20044;-67
2022/11/17 01:06:31;;;;;;;24.98;15.98;;;;;;;;;;5039590;28;20132;-67
2022/11/17 01:09:00;;;;;;;23.27;14.73;;;;;;;;;;5035826;28;20055;-67
2022/11/17 01:11:26;;;;;;;23.05;16.40;;;;;;;;;;5040388;28;20362;-68
2022/11/17 01:13:53;;;;;;;25.65;16.48;;;;;;;;;;5040257;28;20033;-67
2022/11/17 01:16:19;;;;;;;21.98;15.13;;;;;;;;;;5042277;28;20056;-67
2022/11/17 01:18:47;;;;;;;23.27;14.75;;;;;;;;;;5037009;28;20156;-67
2022/11/17 01:21:15;;;;;;;23.05;15.65;;;;;;;;;;5036618;28;20454;-67
2022/11/17 01:23:42;;;;;;;20.00;14.73;;;;;;;;;;5037053;28;20056;-67
2022/11/17 01:26:11;;;;;;;21.77;14.25;;;;;;;;;;5037233;28;20037;-67
2022/11/17 01:28:37;;;;;;;22.85;15.02;;;;;;;;;;5069543;28;20131;-67
2022/11/17 01:31:07;;;;;;;20.10;14.68;;;;;;;;;;5040172;28;20063;-67
2022/11/17 01:33:34;;;;;;;20.00;13.75;;;;;;;;;;5036545;28;20045;-67
2022/11/17 01:36:01;;;;;;;21.70;15.02;;;;;;;;;;5040535;28;20493;-67
2022/11/17 01:38:27;;;;;;;20.25;14.18;;;;;;;;;;5036391;28;20060;-68
2022/11/17 01:40:54;;;;;;;21.10;14.50;;;;;;;;;;5036222;28;20060;-67
2022/11/17 01:43:38;;;;;;;23.42;15.02;;;;;;;;;;5033670;28;20053;-67
2022/11/17 01:46:07;;;;;;;17.80;13.60;;;;;;;;;;5035928;28;20488;-67
2022/11/17 01:48:33;;;;;;;20.42;13.20;;;;;;;;;;5036591;28;20131;-67
2022/11/17 01:51:00;;;;;;;23.00;14.70;;;;;;;;;;5037937;28;20049;-67
2022/11/17 01:53:27;;;;;;;20.90;14.23;;;;;;;;;;5053029;28;20045;-67
2022/11/17 01:55:56;;;;;;;19.88;12.98;;;;;;;;;;5039180;28;20080;-67
2022/11/17 01:58:25;;;;;;;18.65;13.20;;;;;;;;;;5038445;28;20044;-67
2022/11/17 02:00:52;;;;;;;18.98;12.52;;;;;;;;;;5040860;28;20049;-67
2022/11/17 02:03:18;;;;;;;21.10;13.52;;;;;;;;;;5073279;28;20123;-67
2022/11/17 02:05:49;;;;;;;17.90;13.02;;;;;;;;;;5069889;28;20041;-67
2022/11/17 02:08:15;;;;;;;20.08;13.48;;;;;;;;;;5039144;28;20048;-67
2022/11/17 02:10:42;;;;;;;19.90;13.82;;;;;;;;;;5035446;28;20048;-67
2022/11/17 02:13:08;;;;;;;17.55;12.70;;;;;;;;;;5038544;28;20421;-65
2022/11/17 02:15:35;;;;;;;22.65;12.95;;;;;;;;;;5040768;28;20052;-67
2022/11/17 02:18:01;;;;;;;22.38;13.02;;;;;;;;;;5037160;28;20052;-67
2022/11/17 02:20:40;;;;;;;21.40;13.82;;;;;;;;;;5035207;28;20052;-67
2022/11/17 02:23:15;;;;;;;19.55;13.38;;;;;;;;;;5035311;28;20056;-67
2022/11/17 02:25:42;;;;;;;19.98;14.07;;;;;;;;;;5040273;28;20048;-67
2022/11/17 02:28:13;;;;;;;22.27;14.35;;;;;;;;;;5033412;28;20121;-67
2022/11/17 02:30:42;;;;;;;18.75;13.88;;;;;;;;;;5037456;28;20481;-67
2022/11/17 02:33:16;;;;;;;18.77;14.02;;;;;;;;;;5037021;28;20417;-68
2022/11/17 02:35:51;;;;;;;23.85;14.35;;;;;;;;;;5036748;28;20385;-68
2022/11/17 02:38:22;;;;;;;22.42;15.52;;;;;;;;;;5067502;28;20055;-68
2022/11/17 02:40:51;;;;;;;22.50;14.80;;;;;;;;;;5038118;28;20091;-68
2022/11/17 02:46:07;;;;;;;19.50;14.32;;;;;;;;;;5037863;28;20049;-68
2022/11/17 02:48:35;;;;;;;27.13;17.13;;;;;;;;;;5055738;28;20044;-68
2022/11/17 02:51:02;;;;;;;24.77;16.70;;;;;;;;;;5038216;28;20060;-68
2022/11/17 02:53:29;;;;;;;25.20;17.05;;;;;;;;;;5035169;28;20080;-68
2022/11/17 02:55:58;;;;;;;22.13;15.93;;;;;;;;;;5036428;28;20473;-68
2022/11/17 02:58:24;;;;;;;23.35;16.83;;;;;;;;;;5035162;28;20048;-68
2022/11/17 03:01:02;;;;;;;24.70;16.38;;;;;;;;;;5033728;28;20055;-68
2022/11/17 03:03:52;;;;;;;25.10;15.68;;;;;;;;;;5036992;28;20088;-68
2022/11/17 03:06:37;;;;;;;19.30;14.38;;;;;;;;;;5037738;28;20040;-68
2022/11/17 03:09:10;;;;;;;20.73;15.98;;;;;;;;;;5039627;28;20504;-68
2022/11/17 03:11:42;;;;;;;20.10;15.70;;;;;;;;;;5038171;28;20053;-68
2022/11/17 03:14:18;;;;;;;24.95;16.10;;;;;;;;;;5036952;28;20049;-67
2022/11/17 03:16:50;;;;;;;21.38;15.63;;;;;;;;;;5035122;28;20049;-68
2022/11/17 03:19:19;;;;;;;26.50;18.85;;;;;;;;;;5038539;28;20041;-67
2022/11/17 03:21:50;;;;;;;21.73;15.18;;;;;;;;;;5038108;28;20455;-68
2022/11/17 03:24:19;;;;;;;19.70;16.02;;;;;;;;;;5036624;28;20163;-67
2022/11/17 03:26:48;;;;;;;22.90;17.40;;;;;;;;;;5037919;28;20048;-68
2022/11/17 03:29:17;;;;;;;21.95;15.57;;;;;;;;;;5037457;28;20150;-68
2022/11/17 03:31:45;;;;;;;24.70;17.05;;;;;;;;;;5035818;28;20049;-67
2022/11/17 03:34:13;;;;;;;25.25;17.30;;;;;;;;;;5038497;28;20044;-67
2022/11/17 03:36:41;;;;;;;25.77;16.90;;;;;;;;;;5030707;28;20412;-67
2022/11/17 03:39:11;;;;;;;24.45;17.33;;;;;;;;;;5037506;28;20497;-67
2022/11/17 03:41:39;;;;;;;24.48;16.95;;;;;;;;;;5037205;28;20131;-68
2022/11/17 03:44:06;;;;;;;26.40;18.63;;;;;;;;;;5040705;28;20068;-67
2022/11/17 03:46:33;;;;;;;24.08;16.98;;;;;;;;;;5037716;28;20129;-67
2022/11/17 03:49:06;;;;;;;23.05;16.35;;;;;;;;;;5036313;28;20120;-67
2022/11/17 03:51:32;;;;;;;22.92;17.55;;;;;;;;;;5037344;28;20048;-67
2022/11/17 03:53:59;;;;;;;25.83;17.90;;;;;;;;;;5039322;28;20047;-67
2022/11/17 03:56:31;;;;;;;28.27;17.75;;;;;;;;;;5037215;28;20142;-67
2022/11/17 03:59:00;;;;;;;26.00;18.45;;;;;;;;;;5035468;28;20052;-67
2022/11/17 04:01:28;;;;;;;22.42;16.17;;;;;;;;;;5029354;28;20057;-67
2022/11/17 04:03:54;;;;;;;24.52;17.92;;;;;;;;;;5035402;28;20479;-67
2022/11/17 04:06:20;;;;;;;26.75;17.38;;;;;;;;;;5035060;28;20067;-67
2022/11/17 04:08:47;;;;;;;23.58;17.65;;;;;;;;;;5036417;28;20368;-67
2022/11/17 04:16:42;;;;;;;20.35;16.23;;;;;;;;;;5036511;28;20486;-67
2022/11/17 04:19:08;;;;;;;23.02;17.90;;;;;;;;;;5040712;28;20444;-67
2022/11/17 04:21:35;;;;;;;25.70;18.33;;;;;;;;;;5041488;28;20045;-67
2022/11/17 04:24:01;;;;;;;22.85;16.33;;;;;;;;;;5037057;28;20096;-67
2022/11/17 04:29:12;;;;;;;21.27;15.32;;;;;;;;;;5068231;28;20048;-67
2022/11/17 04:31:38;;;;;;;26.42;15.82;;;;;;;;;;5038644;28;20045;-67
2022/11/17 04:34:05;;;;;;;22.92;16.15;;;;;;;;;;5071726;28;20404;-67
2022/11/17 04:36:34;;;;;;;20.88;15.68;;;;;;;;;;5039035;28;20128;-67
2022/11/17 04:39:00;;;;;;;21.00;15.57;;;;;;;;;;5035497;28;20053;-67
2022/11/17 04:44:12;;;;;;;19.13;14.55;;;;;;;;;;5042005;28;20476;-67
2022/11/17 04:46:39;;;;;;;21.27;15.00;;;;;;;;;;5036464;28;20045;-67
2022/11/17 04:49:06;;;;;;;19.83;14.52;;;;;;;;;;5040300;28;20048;-67
2022/11/17 04:51:33;;;;;;;18.25;14.35;;;;;;;;;;5040096;28;20076;-67
2022/11/17 04:54:00;;;;;;;22.02;15.98;;;;;;;;;;5040578;28;20536;-67
2022/11/17 04:56:26;;;;;;;20.52;15.13;;;;;;;;;;5036581;28;20059;-67
2022/11/17 04:58:52;;;;;;;19.23;15.02;;;;;;;;;;5071186;28;20424;-67
2022/11/17 05:01:19;;;;;;;18.20;14.05;;;;;;;;;;5039804;28;20085;-67
2022/11/17 05:03:45;;;;;;;19.40;14.43;;;;;;;;;;5040339;28;20086;-67
2022/11/17 05:06:14;;;;;;;19.73;13.80;;;;;;;;;;5037798;28;20115;-67
2022/11/17 05:08:41;;;;;;;16.90;12.75;;;;;;;;;;5037682;28;20044;-67
2022/11/17 05:13:52;;;;;;;16.15;12.57;;;;;;;;;;5034902;28;20053;-67
2022/11/17 05:19:05;;;;;;;18.95;11.93;;;;;;;;;;5070461;28;20053;-67
2022/11/17 05:21:31;;;;;;;17.02;12.77;;;;;;;;;;5037777;28;20496;-67
2022/11/17 05:23:58;;;;;;;16.58;12.73;;;;;;;;;;5037254;28;20089;-67
2022/11/17 05:26:25;;;;;;;16.25;12.88;;;;;;;;;;5033660;28;20529;-67
2022/11/17 05:28:52;;;;;;;17.02;12.45;;;;;;;;;;5039629;28;20045;-67
2022/11/17 05:31:18;;;;;;;16.13;12.52;;;;;;;;;;5068672;28;20404;-67
2022/11/17 05:33:44;;;;;;;18.05;13.35;;;;;;;;;;5039034;28;20056;-67
2022/11/17 05:36:10;;;;;;;16.98;13.10;;;;;;;;;;5037799;28;20052;-67
2022/11/17 05:38:36;;;;;;;15.45;12.75;;;;;;;;;;5039389;28;20143;-67
2022/11/17 05:41:03;;;;;;;17.73;13.13;;;;;;;;;;5042271;28;20127;-67
2022/11/17 05:43:29;;;;;;;17.05;13.07;;;;;;;;;;5038946;28;20041;-67
2022/11/17 05:45:55;;;;;;;16.08;12.40;;;;;;;;;;5039193;28;20037;-66
2022/11/17 05:48:21;;;;;;;16.65;12.82;;;;;;;;;;5035858;28;20053;-67
2022/11/17 05:50:47;;;;;;;17.88;12.70;;;;;;;;;;5071091;28;20037;-67
2022/11/17 05:53:13;;;;;;;16.92;12.15;;;;;;;;;;5071067;28;20455;-66
2022/11/17 05:55:39;;;;;;;15.63;12.25;;;;;;;;;;5036826;28;20056;-67
2022/11/17 05:58:11;;;;;;;14.75;11.55;;;;;;;;;;5039165;28;20048;-66
2022/11/17 06:00:38;;;;;;;18.30;13.23;;;;;;;;;;5040621;28;20049;-66
2022/11/17 06:03:07;;;;;;;15.85;12.55;;;;;;;;;;5039114;28;20492;-66
2022/11/17 06:05:34;;;;;;;14.70;12.40;;;;;;;;;;5040976;28;20112;-67
2022/11/17 06:08:00;;;;;;;14.40;12.68;;;;;;;;;;5038511;28;20065;-67
2022/11/17 06:10:26;;;;;;;15.35;12.18;;;;;;;;;;5040970;28;20041;-67
2022/11/17 06:12:52;;;;;;;15.75;12.00;;;;;;;;;;5038702;28;20136;-67
2022/11/17 06:15:18;;;;;;;15.18;11.93;;;;;;;;;;5038717;28;20049;-67
2022/11/17 06:17:50;;;;;;;14.18;11.93;;;;;;;;;;5039654;28;20072;-68
2022/11/17 06:20:19;;;;;;;21.00;12.23;;;;;;;;;;5040934;28;20254;-67
2022/11/17 06:22:45;;;;;;;14.68;11.77;;;;;;;;;;5073528;28;20113;-68
2022/11/17 06:25:12;;;;;;;13.68;10.65;;;;;;;;;;5037072;28;20087;-66
2022/11/17 06:27:39;;;;;;;13.90;11.35;;;;;;;;;;5071975;28;20053;-66
2022/11/17 06:30:05;;;;;;;14.35;10.88;;;;;;;;;;5039486;28;20087;-66
2022/11/17 06:32:32;;;;;;;13.18;10.77;;;;;;;;;;5037943;28;20057;-67
2022/11/17 06:34:59;;;;;;;13.00;10.57;;;;;;;;;;5047610;28;20036;-67
2022/11/17 06:37:26;;;;;;;13.02;10.45;;;;;;;;;;5048472;28;20442;-67
2022/11/17 06:39:52;;;;;;;13.43;10.80;;;;;;;;;;5043625;28;20045;-67
2022/11/17 06:42:18;;;;;;;13.95;10.88;;;;;;;;;;5046625;28;20044;-67
2022/11/17 06:44:44;;;;;;;12.20;9.68;;;;;;;;;;5044418;28;20070;-67
2022/11/17 06:47:10;;;;;;;12.38;9.95;;;;;;;;;;5041485;28;20508;-67
2022/11/17 06:49:37;;;;;;;16.60;9.00;;;;;;;;;;5042757;28;20053;-67
2022/11/17 06:52:03;;;;;;;11.60;8.57;;;;;;;;;;5044559;28;20049;-67
2022/11/17 06:54:29;;;;;;;12.52;8.90;;;;;;;;;;5074258;28;20131;-67
2022/11/17 06:56:55;;;;;;;15.02;9.00;;;;;;;;;;5043111;28;20048;-67
2022/11/17 06:59:22;;;;;;;10.48;8.43;;;;;;;;;;5043282;28;20053;-67
2022/11/17 07:01:48;;;;;;;12.05;9.30;;;;;;;;;;5042289;28;20094;-67
2022/11/17 07:04:14;;;;;;;11.98;8.63;;;;;;;;;;5040205;28;20038;-67
2022/11/17 07:06:40;;;;;;;12.13;9.13;;;;;;;;;;5040791;28;20045;-67
2022/11/17 07:09:06;;;;;;;14.15;9.73;;;;;;;;;;5040591;28;20143;-70
2022/11/17 07:11:35;;;;;;;11.63;9.00;;;;;;;;;;5042170;28;20412;-67
2022/11/17 07:14:01;;;;;;;12.30;8.48;;;;;;;;;;5040486;28;20053;-67
2022/11/17 07:16:29;;;;;;;11.10;8.77;;;;;;;;;;5042908;28;20072;-67
2022/11/17 07:18:57;;;;;;;12.02;8.80;;;;;;;;;;5041400;28;20052;-67
2022/11/17 07:21:24;;;;;;;12.15;8.48;;;;;;;;;;5040208;28;20109;-66
2022/11/17 07:23:50;;;;;;;11.88;8.55;;;;;;;;;;5042225;28;20121;-67
2022/11/17 07:26:16;;;;;;;10.68;7.85;;;;;;;;;;5039690;28;20044;-67
2022/11/17 07:28:42;;;;;;;10.50;8.25;;;;;;;;;;5040176;28;20111;-67
2022/11/17 07:31:09;;;;;;;10.48;8.35;;;;;;;;;;5039643;28;20044;-67
2022/11/17 07:33:35;;;;;;;12.10;7.40;;;;;;;;;;5041331;28;20044;-67
2022/11/17 07:36:04;;;;;;;9.27;7.70;;;;;;;;;;5040092;28;20472;-67
2022/11/17 07:38:31;;;;;;;9.65;7.97;;;;;;;;;;5072868;28;20148;-67
2022/11/17 07:40:59;;;;;;;9.85;8.13;;;;;;;;;;5038555;28;20037;-66
2022/11/17 07:43:25;;;;;;;10.05;8.45;;;;;;;;;;5072348;28;20049;-67
2022/11/17 07:45:51;;;;;;;11.98;8.18;;;;;;;;;;5074380;28;20477;-67
2022/11/17 07:48:17;;;;;;;10.27;8.25;;;;;;;;;;5073786;28;20638;-67
2022/11/17 07:50:43;;;;;;;10.77;8.70;;;;;;;;;;5038409;28;20041;-66
2022/11/17 07:53:09;;;;;;;10.68;8.88;;;;;;;;;;5044720;28;20067;-67
2022/11/17 07:55:36;;;;;;;10.35;8.55;;;;;;;;;;5044515;28;20056;-67
2022/11/17 07:58:02;;;;;;;9.25;8.10;;;;;;;;;;5044051;28;20052;-67
2022/11/17 08:00:29;;;;;;;10.48;8.40;;;;;;;;;;5077288;28;20139;-66
2022/11/17 08:02:55;;;;;;;10.25;8.30;;;;;;;;;;5043881;28;20115;-67
2022/11/17 08:05:21;;;;;;;10.20;8.23;;;;;;;;;;5044149;28;20045;-67
2022/11/17 08:07:55;;;;;;;10.13;7.90;;;;;;;;;;5046399;28;20037;-67
2022/11/17 08:10:21;;;;;;;7.22;5.97;;;;;;;;;;5047019;28;20416;-67
2022/11/17 08:12:50;;;;;;;8.82;6.90;;;;;;;;;;5045441;28;20044;-67
2022/11/17 08:15:16;;;;;;;9.25;7.60;;;;;;;;;;5042317;28;20096;-67
2022/11/17 08:17:43;;;;;;;12.27;7.97;;;;;;;;;;5043901;28;20061;-67
2022/11/17 08:20:11;;;;;;;9.73;7.30;;;;;;;;;;5044981;28;20115;-67
2022/11/17 08:22:38;;;;;;;11.15;8.10;;;;;;;;;;5042365;28;20110;-67
2022/11/17 08:25:04;;;;;;;10.63;7.90;;;;;;;;;;5024828;28;20037;-67
2022/11/17 08:27:31;;;;;;;10.57;7.78;;;;;;;;;;5045622;28;20051;-67
2022/11/17 08:29:57;;;;;;;14.23;8.93;;;;;;;;;;5044699;28;20763;-67
2022/11/17 08:32:23;;;;;;;10.27;7.68;;;;;;;;;;5042616;28;20042;-67
2022/11/17 08:34:49;;;;;;;9.38;7.13;;;;;;;;;;5043581;28;20439;-67
2022/11/17 08:37:15;;;;;;;14.02;9.02;;;;;;;;;;5044304;28;20085;-67
2022/11/17 08:39:41;;;;;;;11.48;8.20;;;;;;;;;;5043893;28;20072;-67
2022/11/17 08:42:08;;;;;;;9.43;8.07;;;;;;;;;;5044379;28;20063;-67
2022/11/17 08:44:34;;;;;;;12.40;8.15;;;;;;;;;;5044001;28;20040;-67
2022/11/17 08:47:00;;;;;;;9.23;7.65;;;;;;;;;;5043510;28;20466;-67
2022/11/17 08:49:26;;;;;;;9.90;7.72;;;;;;;;;;5044199;28;20435;-67
2022/11/17 08:51:52;;;;;;;9.18;7.68;;;;;;;;;;5076321;28;20048;-67
2022/11/17 08:54:19;;;;;;;9.07;7.28;;;;;;;;;;5044884;28;20093;-67
2022/11/17 08:56:45;;;;;;;10.93;7.88;;;;;;;;;;5045236;28;20152;-67
2022/11/17 08:59:12;;;;;;;9.25;7.45;;;;;;;;;;5043726;28;20055;-67
2022/11/17 09:01:39;;;;;;;10.82;8.02;;;;;;;;;;5076307;28;20064;-66
2022/11/17 09:04:05;;;;;;;10.82;7.43;;;;;;;;;;5045270;28;20461;-66
2022/11/17 09:06:31;;;;;;;8.77;6.30;;;;;;;;;;5049838;28;20041;-66
2022/11/17 09:08:57;;;;;;;9.00;7.18;;;;;;;;;;5049505;28;20044;-66
2022/11/17 09:11:24;;;;;;;9.20;7.55;;;;;;;;;;5051954;28;20037;-66
2022/11/17 09:13:50;;;;;;;10.93;7.97;;;;;;;;;;5044940;28;20103;-66
2022/11/17 09:16:16;;;;;;;9.63;7.70;;;;;;;;;;5046418;28;20049;-65
2022/11/17 09:18:42;;;;;;;10.52;7.50;;;;;;;;;;5046347;28;20049;-67
2022/11/17 09:21:10;;;;;;;12.88;9.18;;;;;;;;;;5044187;28;20404;-66
2022/11/17 09:23:36;;;;;;;10.02;7.70;;;;;;;;;;5046578;28;20053;-66
2022/11/17 09:26:05;;;;;;;10.88;8.05;;;;;;;;;;5075505;28;20048;-68
2022/11/17 09:28:31;;;;;;;9.32;7.40;;;;;;;;;;5048126;28;20076;-66
2022/11/17 09:30:58;;;;;;;10.57;7.78;;;;;;;;;;5040772;28;20041;-66
2022/11/17 09:33:24;;;;;;;10.82;8.05;;;;;;;;;;5039573;28;20133;-72
2022/11/17 09:35:50;;;;;;;11.15;8.55;;;;;;;;;;5044957;28;20437;-65
2022/11/17 09:38:16;;;;;;;11.23;8.20;;;;;;;;;;5074654;28;20068;-65
2022/11/17 09:40:42;;;;;;;10.70;7.70;;;;;;;;;;5042801;28;20044;-65
2022/11/17 09:43:19;;;;;;;10.68;8.32;;;;;;;;;;5044885;28;20450;-65
2022/11/17 09:45:47;;;;;;;10.95;8.75;;;;;;;;;;5041703;28;20044;-66
2022/11/17 09:48:17;;;;;;;10.52;8.50;;;;;;;;;;5043231;28;20045;-66
2022/11/17 09:50:44;;;;;;;10.52;8.35;;;;;;;;;;5045313;28;20112;-66
2022/11/17 09:53:21;;;;;;;10.32;8.77;;;;;;;;;;5044508;28;20480;-66
2022/11/17 09:55:50;;;;;;;11.90;9.10;;;;;;;;;;5077176;28;20041;-66
2022/11/17 09:58:18;;;;;;;12.25;9.07;;;;;;;;;;5044859;28;20173;-66
2022/11/17 10:00:47;;;;;;;13.50;9.10;;;;;;;;;;5041333;28;20059;-66
2022/11/17 10:03:31;;;;;;;12.80;8.88;;;;;;;;;;5043435;28;20045;-66
2022/11/17 10:05:58;;;;;;;13.40;9.57;;;;;;;;;;5047462;28;20041;-66
2022/11/17 10:08:41;;;;;;;11.02;8.73;;;;;;;;;;5041860;28;20518;-68
2022/11/17 10:11:31;;;;;;;11.77;8.80;;;;;;;;;;5076945;28;20502;-65
2022/11/17 10:14:01;;;;;;;10.32;8.02;;;;;;;;;;5046082;28;20049;-65
2022/11/17 10:16:28;;;;;;;9.48;7.75;;;;;;;;;;5042370;28;20049;-64
2022/11/17 10:18:54;;;;;;;10.90;8.18;;;;;;;;;;5047424;28;20090;-64
2022/11/17 10:21:20;;;;;;;9.35;7.60;;;;;;;;;;5046652;28;20155;-65
2022/11/17 10:23:51;;;;;;;11.38;8.35;;;;;;;;;;5042986;28;20060;-64
2022/11/17 10:26:17;;;;;;;10.75;6.95;;;;;;;;;;5045812;28;20379;-65
2022/11/17 10:28:43;;;;;;;9.23;7.20;;;;;;;;;;5044881;28;20045;-66
2022/11/17 10:31:09;;;;;;;8.10;6.30;;;;;;;;;;5045916;28;20755;-66
2022/11/17 10:33:35;;;;;;;8.88;6.72;;;;;;;;;;5047199;28;20128;-66
2022/11/17 10:36:03;;;;;;;8.85;7.13;;;;;;;;;;5043465;28;20511;-66
2022/11/17 10:38:32;;;;;;;7.55;5.72;;;;;;;;;;5042222;28;20041;-66
2022/11/17 10:41:00;;;;;;;10.20;6.55;;;;;;;;;;5043109;28;20040;-67
2022/11/17 10:43:31;;;;;;;9.23;6.70;;;;;;;;;;5081080;28;20130;-66
2022/11/17 10:46:01;;;;;;;8.70;7.05;;;;;;;;;;5041158;28;20110;-67
2022/11/17 10:48:29;;;;;;;8.18;6.32;;;;;;;;;;5041108;28;20068;-66
2022/11/17 10:50:58;;;;;;;12.05;7.20;;;;;;;;;;5043655;28;20045;-66
2022/11/17 10:53:29;;;;;;;10.18;6.85;;;;;;;;;;5041537;28;20461;-67
2022/11/17 10:56:03;;;;;;;10.77;7.40;;;;;;;;;;5041662;28;20033;-66
2022/11/17 10:58:30;;;;;;;8.85;6.80;;;;;;;;;;5039824;28;20056;-67
2022/11/17 11:00:58;;;;;;;11.02;7.53;;;;;;;;;;5041138;28;20131;-66
2022/11/17 11:03:27;;;;;;;16.60;7.78;;;;;;;;;;5074432;28;20362;-66
2022/11/17 11:05:56;;;;;;;8.52;6.63;;;;;;;;;;5041417;28;20492;-66
2022/11/17 11:08:24;;;;;;;10.95;7.15;;;;;;;;;;5043437;28;20123;-66
2022/11/17 11:10:52;;;;;;;12.10;7.72;;;;;;;;;;5040974;28;20064;-67
2022/11/17 11:13:25;;;;;;;8.77;6.57;;;;;;;;;;5039619;28;20033;-66
2022/11/17 11:15:52;;;;;;;9.98;7.00;;;;;;;;;;5040663;28;20121;-66
2022/11/17 11:18:19;;;;;;;8.80;7.00;;;;;;;;;;5041207;28;20073;-66
2022/11/17 11:20:54;;;;;;;9.88;6.90;;;;;;;;;;5043113;28;20040;-66
2022/11/17 11:23:27;;;;;;;8.32;6.75;;;;;;;;;;5043929;28;20060;-66
2022/11/17 11:26:01;;;;;;;10.38;6.65;;;;;;;;;;5040591;28;20048;-66
2022/11/17 11:28:27;;;;;;;10.25;6.90;;;;;;;;;;5040410;28;20431;-67
2022/11/17 11:30:58;;;;;;;8.98;7.07;;;;;;;;;;5040574;28;20063;-67
2022/11/17 11:33:25;;;;;;;10.02;6.82;;;;;;;;;;5071044;28;20053;-66
2022/11/17 11:36:13;;;;;;;9.45;6.72;;;;;;;;;;5072075;28;20076;-66
2022/11/17 11:38:48;;;;;;;8.95;6.88;;;;;;;;;;5040942;28;20103;-67
2022/11/17 11:41:24;;;;;;;9.95;6.97;;;;;;;;;;5040451;28;20036;-67
2022/11/17 11:43:51;;;;;;;11.15;7.03;;;;;;;;;;5038904;28;20069;-67
2022/11/17 11:46:25;;;;;;;9.82;6.15;;;;;;;;;;5072992;28;20040;-65
2022/11/17 11:48:53;;;;;;;9.07;6.88;;;;;;;;;;5039570;28;20041;-66
2022/11/17 11:51:24;;;;;;;9.02;6.20;;;;;;;;;;5042932;28;20037;-66
2022/11/17 11:53:54;;;;;;;9.90;6.00;;;;;;;;;;5043116;28;20140;-67
2022/11/17 11:56:24;;;;;;;8.35;6.10;;;;;;;;;;5041445;28;20056;-66
2022/11/17 11:59:03;;;;;;;8.07;5.63;;;;;;;;;;5039870;28;20095;-66
2022/11/17 12:01:34;;;;;;;6.97;5.50;;;;;;;;;;5072957;28;20147;-66
2022/11/17 12:04:13;;;;;;;9.05;5.22;;;;;;;;;;5043313;28;20044;-67
2022/11/17 12:06:43;;;;;;;9.50;5.80;;;;;;;;;;5058301;28;20378;-66
2022/11/17 12:09:27;;;;;;;8.60;5.75;;;;;;;;;;5040506;28;20547;-67
2022/11/17 12:12:01;;;;;;;6.30;4.80;;;;;;;;;;5041132;28;20150;-66
2022/11/17 12:14:28;;;;;;;6.57;4.90;;;;;;;;;;5073307;28;20049;-66
2022/11/17 12:17:01;;;;;;;6.25;4.65;;;;;;;;;;5072101;28;20084;-66
2022/11/17 12:19:45;;;;;;;7.82;4.90;;;;;;;;;;5042175;28;20044;-67
2022/11/17 12:22:19;;;;;;;6.63;4.68;;;;;;;;;;5075401;28;20090;-67
2022/11/17 12:24:45;;;;;;;5.28;3.88;;;;;;;;;;5042113;28;20381;-66
2022/11/17 12:27:31;;;;;;;7.00;4.25;;;;;;;;;;5041623;28;20484;-66
2022/11/17 12:29:57;;;;;;;6.43;4.82;;;;;;;;;;5041205;28;20048;-66
2022/11/17 12:32:53;;;;;;;6.32;4.43;;;;;;;;;;5040438;28;20176;-66
2022/11/17 12:35:29;;;;;;;8.25;5.50;;;;;;;;;;5070544;28;20480;-66
2022/11/17 12:38:14;;;;;;;8.65;5.75;;;;;;;;;;5039951;28;20623;-66
2022/11/17 12:40:42;;;;;;;8.20;5.65;;;;;;;;;;5046538;28;20060;-66
2022/11/17 12:43:14;;;;;;;7.25;5.60;;;;;;;;;;5024945;28;20045;-66
2022/11/17 12:46:02;;;;;;;10.38;5.40;;;;;;;;;;5050685;28;20403;-66
2022/11/17 12:48:28;;;;;;;8.20;5.45;;;;;;;;;;5042463;28;20064;-66
2022/11/17 12:51:00;;;;;;;7.85;5.97;;;;;;;;;;5046583;28;20041;-66
2022/11/17 12:53:31;;;;;;;8.20;6.03;;;;;;;;;;5047620;28;20099;-66
2022/11/17 12:56:06;;;;;;;9.60;5.97;;;;;;;;;;5049980;28;20166;-66
2022/11/17 12:58:32;;;;;;;10.48;7.00;;;;;;;;;;5081634;28;20346;-67
2022/11/17 13:00:58;;;;;;;9.82;6.38;;;;;;;;;;5045627;28;20445;-66
2022/11/17 13:03:27;;;;;;;8.95;5.78;;;;;;;;;;5050078;28;20132;-66
2022/11/17 13:06:07;;;;;;;12.07;6.78;;;;;;;;;;5043224;28;20439;-66
2022/11/17 13:08:34;;;;;;;9.43;6.32;;;;;;;;;;5042932;28;20061;-66
2022/11/17 13:11:05;;;;;;;10.68;6.40;;;;;;;;;;5045431;28;20067;-66
2022/11/17 13:13:32;;;;;;;10.68;7.10;;;;;;;;;;5038512;28;20049;-65
2022/11/17 13:16:00;;;;;;;9.68;6.72;;;;;;;;;;5042107;28;20119;-66
2022/11/17 13:18:29;;;;;;;13.02;6.63;;;;;;;;;;5039396;28;20052;-66
2022/11/17 13:20:56;;;;;;;9.77;6.38;;;;;;;;;;5073931;28;20429;-66
2022/11/17 13:23:24;;;;;;;9.30;7.00;;;;;;;;;;5043928;28;20133;-66
2022/11/17 13:25:51;;;;;;;11.18;6.00;;;;;;;;;;5043732;28;20040;-66
2022/11/17 13:28:27;;;;;;;10.05;7.00;;;;;;;;;;5044997;28;20481;-64
2022/11/17 13:30:54;;;;;;;8.80;6.57;;;;;;;;;;5043304;28;20433;-66
2022/11/17 13:33:21;;;;;;;11.80;7.47;;;;;;;;;;5041288;28;20099;-75
2022/11/17 13:35:50;;;;;;;11.82;6.60;;;;;;;;;;5041527;28;20044;-66
2022/11/17 13:38:17;;;;;;;11.13;7.63;;;;;;;;;;5073734;28;20412;-66
2022/11/17 13:40:44;;;;;;;13.65;8.32;;;;;;;;;;5073432;28;20063;-66
2022/11/17 13:43:11;;;;;;;13.95;10.32;;;;;;;;;;5044151;28;20951;-66
2022/11/17 13:45:37;;;;;;;11.27;8.20;;;;;;;;;;5035297;28;20044;-66
2022/11/17 13:48:04;;;;;;;11.25;7.22;;;;;;;;;;5033776;28;20041;-67
2022/11/17 13:50:30;;;;;;;12.82;10.70;;;;;;;;;;5042710;28;20047;-66
2022/11/17 13:52:58;;;;;;;11.43;8.60;;;;;;;;;;5042581;28;21567;-66
2022/11/17 13:55:25;;;;;;;19.48;15.20;;;;;;;;;;5035216;28;20148;-66
2022/11/17 13:57:54;;;;;;;10.93;8.20;;;;;;;;;;5075342;28;20408;-66
2022/11/17 14:00:20;;;;;;;10.45;7.70;;;;;;;;;;5043694;28;20057;-66
2022/11/17 14:02:55;;;;;;;13.75;8.10;;;;;;;;;;5040477;28;20095;-66
2022/11/17 14:05:24;;;;;;;12.25;7.57;;;;;;;;;;5031388;28;20051;-65
2022/11/17 14:07:51;;;;;;;11.65;7.13;;;;;;;;;;5038634;28;20045;-66
2022/11/17 14:10:21;;;;;;;14.70;11.02;;;;;;;;;;5058304;28;20085;-66
2022/11/17 14:12:47;;;;;;;12.18;7.72;;;;;;;;;;5043122;28;20114;-65
2022/11/17 14:15:22;;;;;;;10.65;7.55;;;;;;;;;;5072228;28;20065;-65
2022/11/17 14:17:53;;;;;;;53.72;43.35;;;;;;;;;;5043964;28;20461;-65
2022/11/17 14:20:29;;;;;;;19.55;17.48;;;;;;;;;;5046430;28;20124;-66
2022/11/17 14:23:02;;;;;;;17.27;9.65;;;;;;;;;;5075396;28;20488;-65
2022/11/17 14:25:29;;;;;;;16.80;14.65;;;;;;;;;;5045547;28;20107;-66
2022/11/17 14:27:55;;;;;;;13.85;8.95;;;;;;;;;;5046525;28;20131;-65
2022/11/17 14:30:22;;;;;;;17.08;12.13;;;;;;;;;;5043285;28;20048;-65
2022/11/17 14:32:48;;;;;;;12.90;8.20;;;;;;;;;;5045902;28;20490;-66
2022/11/17 14:35:14;;;;;;;12.93;7.78;;;;;;;;;;5042570;28;20044;-65
2022/11/17 14:37:41;;;;;;;11.48;7.35;;;;;;;;;;5058956;28;20571;-65
2022/11/17 14:40:12;;;;;;;12.68;7.30;;;;;;;;;;5043488;28;20075;-65
2022/11/17 14:42:40;;;;;;;13.52;8.80;;;;;;;;;;5044993;28;20048;-65
2022/11/17 14:45:07;;;;;;;13.43;7.32;;;;;;;;;;5039244;28;20392;-65
2022/11/17 14:47:33;;;;;;;14.70;7.90;;;;;;;;;;5041950;28;20048;-65
2022/11/17 14:49:59;;;;;;;10.85;8.07;;;;;;;;;;5041400;28;20303;-65
2022/11/17 14:52:26;;;;;;;10.40;6.97;;;;;;;;;;5039217;28;20053;-65
2022/11/17 14:54:52;;;;;;;14.70;7.78;;;;;;;;;;5042108;28;20166;-65
2022/11/17 14:57:18;;;;;;;11.57;7.13;;;;;;;;;;5040720;28;20045;-66
2022/11/17 14:59:44;;;;;;;55.45;36.20;;;;;;;;;;5039934;28;20056;-64
2022/11/17 15:02:11;;;;;;;11.63;7.75;;;;;;;;;;5041785;28;20097;-65